Portada
METAR-TAF:

METAR-TAF

Aeroports :

Khartum, Sudan

latitud: 15-36N, longitud: 032-33E, altitud: 382 m

Observació

L'informe es va fer fa 24 minuts, a les 03:30 UTC
Vent 3 kt del Nord/Nord-Oest
Temperatura 23°C
Humitat 33%
Pressió 1011 hPa
Visibilitat 10 km o més
sense núvols per sota de 1500 mi sense presència de cumulonimbus.

METAR: HSSS 140330Z 34003KT CAVOK 23/06 Q1011 NOSIG

Hora: 06:54 (03:54 UTC)

Pronòstic

L'informe es va fer fa 4 hores i 54 minuts, a les 23:00 UTC
Pronòstic vàlid del 14 a les 00 UTC al 15 a les 06 UTC
Vent 8 kt del Nord/Nord-Oest amb ràfegues de 18 kt
Visibilitat 10 km o més
sense núvols per sota de 1500 mi sense presència de cumulonimbus.

TAF: HSSS 132300Z 1400/1506 34008G18KT CAVOK

Observacions i pronòstics meteorològics de més de 4000 aeroports (METAR i TAF).

Les estacions disponibles són els punts grocs i vermells al mapa.

Posi el ratolí al punt desitjat per veure el nom de l'estació.

Feu clic per veure les observacions i els pronòstics meteorològics.

Per canviar el mapa: feu clic els botons verds amb una creu de color negre per apropar; al botó verd amb un guió per allunyar la imatge; o en les fletxes verdes per a mapes adjacents.


METAR-TAF: